createdAt,value
2023-01-09T00:02:06.489Z,6.43
2023-01-09T00:04:51.781Z,6.32
2023-01-09T00:07:32.395Z,6.25
2023-01-09T00:10:15.388Z,6.28
2023-01-09T00:12:49.995Z,6.15
2023-01-09T00:15:33.511Z,6.22
2023-01-09T00:18:11.719Z,6.19
2023-01-09T00:20:58.263Z,6.18
2023-01-09T00:23:33.917Z,6.15
2023-01-09T00:26:18.505Z,6.05
2023-01-09T00:28:55.711Z,6.12
2023-01-09T00:31:36.552Z,6.15
2023-01-09T00:34:25.991Z,6.33
2023-01-09T00:36:58.230Z,6.30
2023-01-09T00:39:36.460Z,6.29
2023-01-09T00:42:25.840Z,6.43
2023-01-09T00:45:14.502Z,6.57
2023-01-09T00:47:48.339Z,6.71
2023-01-09T00:50:35.178Z,6.72
2023-01-09T00:53:26.370Z,6.84
2023-01-09T00:56:16.856Z,6.92
2023-01-09T00:58:58.506Z,7.05
2023-01-09T01:01:39.766Z,7.06
2023-01-09T01:04:28.179Z,7.16
2023-01-09T01:07:25.115Z,7.16
2023-01-09T01:10:03.041Z,7.20
2023-01-09T01:12:42.919Z,7.28
2023-01-09T01:15:26.877Z,7.34
2023-01-09T01:18:16.538Z,7.36
2023-01-09T01:20:52.578Z,7.44
2023-01-09T01:23:38.869Z,7.60
2023-01-09T01:26:18.101Z,7.77
2023-01-09T01:28:50.698Z,7.67
2023-01-09T01:31:26.112Z,7.82
2023-01-09T01:34:03.286Z,7.91
2023-01-09T01:36:48.790Z,8.07
2023-01-09T01:39:24.485Z,7.98
2023-01-09T01:42:02.133Z,8.14
2023-01-09T01:45:02.091Z,8.17
2023-01-09T01:48:04.018Z,8.23
2023-01-09T01:50:46.612Z,8.31
2023-01-09T01:53:27.267Z,8.26
2023-01-09T01:56:21.847Z,8.29
2023-01-09T01:59:13.287Z,8.32
2023-01-09T02:01:57.691Z,8.39
2023-01-09T02:04:35.523Z,8.42
2023-01-09T02:07:11.105Z,8.39
2023-01-09T02:09:47.302Z,8.48
2023-01-09T02:12:28.969Z,8.52
2023-01-09T02:15:17.330Z,8.52
2023-01-09T02:18:19.677Z,8.53
2023-01-09T02:21:13.607Z,8.41
2023-01-09T02:24:04.801Z,8.40
2023-01-09T02:26:56.010Z,8.54
2023-01-09T02:29:38.116Z,8.57
2023-01-09T02:32:32.991Z,8.64
2023-01-09T02:35:51.081Z,8.55
2023-01-09T02:38:45.593Z,8.46
2023-01-09T02:41:31.855Z,8.42
2023-01-09T02:44:36.135Z,8.51
2023-01-09T02:47:34.569Z,8.48
2023-01-09T02:50:17.736Z,8.55
2023-01-09T02:53:25.410Z,8.39
2023-01-09T02:56:11.951Z,8.34
2023-01-09T02:59:28.663Z,8.28
2023-01-09T03:02:34.602Z,8.15
2023-01-09T03:05:24.413Z,8.00
2023-01-09T03:08:18.692Z,7.87
2023-01-09T03:11:14.868Z,7.93
2023-01-09T03:14:01.325Z,7.99
2023-01-09T03:16:48.143Z,7.91
2023-01-09T03:19:28.255Z,7.82
2023-01-09T03:22:09.094Z,7.58
2023-01-09T03:24:54.705Z,7.56
2023-01-09T03:27:33.052Z,7.56
2023-01-09T03:30:13.828Z,7.61
2023-01-09T03:33:08.137Z,7.63
2023-01-09T03:35:45.694Z,7.55
2023-01-09T03:38:24.552Z,7.60
2023-01-09T03:41:05.197Z,7.54
2023-01-09T03:43:45.925Z,7.48
2023-01-09T03:46:27.703Z,7.50
2023-01-09T03:49:00.817Z,7.42
2023-01-09T03:51:44.439Z,7.31
2023-01-09T03:54:31.532Z,7.29
2023-01-09T03:57:11.538Z,7.24
2023-01-09T03:59:52.887Z,7.27
2023-01-09T04:02:36.717Z,7.26
2023-01-09T04:05:15.102Z,7.26
2023-01-09T04:07:58.487Z,7.31
2023-01-09T04:10:38.340Z,7.34
2023-01-09T04:13:16.379Z,7.28
2023-01-09T04:15:49.223Z,7.16
2023-01-09T04:18:27.546Z,7.25
2023-01-09T04:20:59.559Z,7.32
2023-01-09T04:23:37.477Z,7.36
2023-01-09T04:26:17.336Z,7.37
2023-01-09T04:28:46.601Z,7.31
2023-01-09T04:31:26.900Z,7.30
2023-01-09T04:34:04.332Z,7.24
2023-01-09T04:36:37.061Z,7.21
2023-01-09T04:39:11.467Z,7.12
2023-01-09T04:41:49.784Z,7.02
2023-01-09T04:44:37.940Z,7.00
2023-01-09T04:47:27.201Z,6.99
2023-01-09T04:50:04.731Z,7.02
2023-01-09T04:52:48.443Z,7.09
2023-01-09T04:55:17.691Z,7.04
2023-01-09T04:57:57.892Z,7.07
2023-01-09T05:00:33.562Z,7.06
2023-01-09T05:03:22.008Z,7.09
2023-01-09T05:05:57.041Z,6.87
2023-01-09T05:08:34.662Z,6.79
2023-01-09T05:11:13.528Z,6.75
2023-01-09T05:13:54.368Z,6.73
2023-01-09T05:16:32.144Z,6.80
2023-01-09T05:19:15.383Z,6.79
2023-01-09T05:22:02.057Z,6.70
2023-01-09T05:24:34.098Z,6.84
2023-01-09T05:27:09.721Z,6.83
2023-01-09T05:29:51.871Z,6.72
2023-01-09T05:32:18.831Z,6.60
2023-01-09T05:34:59.389Z,6.57
2023-01-09T05:37:40.162Z,6.55
2023-01-09T05:40:20.676Z,6.42
2023-01-09T05:43:04.881Z,6.33
2023-01-09T05:45:45.543Z,6.44
2023-01-09T05:48:25.750Z,6.33
2023-01-09T05:51:06.474Z,6.16
2023-01-09T05:53:39.163Z,6.19
2023-01-09T05:56:22.699Z,6.07
2023-01-09T05:59:03.432Z,6.02
2023-01-09T06:01:41.106Z,6.00
2023-01-09T06:04:21.845Z,5.97
2023-01-09T06:07:10.066Z,5.95
2023-01-09T06:09:56.677Z,6.04
2023-01-09T06:12:34.689Z,5.99
2023-01-09T06:15:09.141Z,5.95
2023-01-09T06:17:52.105Z,5.92
2023-01-09T06:20:35.322Z,5.92
2023-01-09T06:23:12.203Z,5.91
2023-01-09T06:26:00.192Z,5.91
2023-01-09T06:28:45.912Z,5.86
2023-01-09T06:31:26.663Z,5.83
2023-01-09T06:34:01.970Z,5.81
2023-01-09T06:36:42.836Z,5.63
2023-01-09T06:39:20.597Z,5.73
2023-01-09T06:42:03.979Z,5.82
2023-01-09T06:44:48.419Z,5.82
2023-01-09T06:47:31.118Z,5.86
2023-01-09T06:50:09.290Z,5.86
2023-01-09T06:52:53.074Z,5.84
2023-01-09T06:55:30.205Z,5.82
2023-01-09T06:58:05.846Z,5.81
2023-01-09T07:00:52.327Z,5.82
2023-01-09T07:03:27.603Z,5.92
2023-01-09T07:06:05.680Z,5.87
2023-01-09T07:08:35.456Z,5.88
2023-01-09T07:11:13.418Z,5.78
2023-01-09T07:13:48.498Z,5.83
2023-01-09T07:16:24.372Z,5.82
2023-01-09T07:19:05.449Z,5.68
2023-01-09T07:21:46.025Z,5.73
2023-01-09T07:24:29.137Z,5.64
2023-01-09T07:27:06.809Z,5.61
2023-01-09T07:29:48.511Z,5.70
2023-01-09T07:32:26.767Z,5.74
2023-01-09T07:34:59.511Z,5.74
2023-01-09T07:37:34.268Z,5.70
2023-01-09T07:40:10.527Z,5.85
2023-01-09T07:42:43.238Z,5.91
2023-01-09T07:45:24.891Z,5.82
2023-01-09T07:48:07.713Z,5.80
2023-01-09T07:50:46.495Z,5.88
2023-01-09T07:53:15.967Z,5.81
2023-01-09T07:56:06.049Z,5.88
2023-01-09T07:58:46.787Z,5.92
2023-01-09T08:01:32.543Z,5.93
2023-01-09T08:04:02.770Z,6.01
2023-01-09T08:06:41.749Z,6.13
2023-01-09T08:09:29.027Z,6.12
2023-01-09T08:12:09.706Z,6.25
2023-01-09T08:14:49.342Z,6.43
2023-01-09T08:17:32.371Z,6.42
2023-01-09T08:20:10.981Z,6.36
2023-01-09T08:22:57.798Z,6.41
2023-01-09T08:25:40.504Z,6.36
2023-01-09T08:28:17.551Z,6.38
2023-01-09T08:31:07.583Z,6.42
2023-01-09T08:33:42.297Z,6.41
2023-01-09T08:36:23.026Z,6.37
2023-01-09T08:38:55.470Z,6.34
2023-01-09T08:41:49.402Z,6.40
2023-01-09T08:44:45.914Z,6.36
2023-01-09T08:47:40.565Z,6.39
2023-01-09T08:50:24.323Z,6.39
2023-01-09T08:53:07.619Z,6.16
2023-01-09T08:55:51.777Z,6.18
2023-01-09T08:58:30.166Z,6.30
2023-01-09T09:01:10.587Z,6.35
2023-01-09T09:03:48.330Z,6.37
2023-01-09T09:06:25.560Z,6.25
2023-01-09T09:09:04.018Z,6.26
2023-01-09T09:11:39.742Z,6.34
2023-01-09T09:14:30.729Z,6.36
2023-01-09T09:17:03.763Z,6.56
2023-01-09T09:19:41.512Z,6.56
2023-01-09T09:22:14.240Z,6.53
2023-01-09T09:24:47.670Z,6.48
2023-01-09T09:27:25.449Z,6.53
2023-01-09T09:30:00.171Z,6.61
2023-01-09T09:32:37.025Z,6.57
2023-01-09T09:35:21.280Z,6.50
2023-01-09T09:38:10.095Z,6.36
2023-01-09T09:41:37.736Z,6.29
2023-01-09T09:44:52.627Z,6.42
2023-01-09T09:47:43.260Z,6.37
2023-01-09T09:50:24.812Z,6.43
2023-01-09T09:53:09.809Z,6.28
2023-01-09T09:55:45.974Z,6.35
2023-01-09T09:58:22.960Z,6.42
2023-01-09T10:01:01.958Z,6.42
2023-01-09T10:03:48.654Z,6.47
2023-01-09T10:06:26.574Z,6.42
2023-01-09T10:09:28.732Z,6.33
2023-01-09T10:12:33.081Z,6.41
2023-01-09T10:15:20.891Z,6.39
2023-01-09T10:18:07.609Z,6.58
2023-01-09T10:20:56.724Z,6.29
2023-01-09T10:23:58.895Z,6.29
2023-01-09T10:27:00.911Z,6.34
2023-01-09T10:29:52.312Z,6.27
2023-01-09T10:32:57.250Z,6.22
2023-01-09T10:35:51.078Z,6.36
2023-01-09T10:38:41.269Z,6.38
2023-01-09T10:41:26.990Z,6.37
2023-01-09T10:44:25.962Z,6.49
2023-01-09T10:47:12.628Z,6.47
2023-01-09T10:49:51.146Z,6.50
2023-01-09T10:52:36.919Z,6.47
2023-01-09T10:55:28.049Z,6.44
2023-01-09T10:58:14.783Z,6.50
2023-01-09T11:00:53.547Z,6.54
2023-01-09T11:03:32.302Z,6.59
2023-01-09T11:06:35.199Z,6.51
2023-01-09T11:09:11.333Z,6.60
2023-01-09T11:11:54.447Z,6.63
2023-01-09T11:14:39.001Z,6.58
2023-01-09T11:17:33.944Z,6.61
2023-01-09T11:20:26.905Z,6.64
2023-01-09T11:23:25.049Z,6.63
2023-01-09T11:26:10.271Z,6.58
2023-01-09T11:29:03.358Z,6.59
2023-01-09T11:31:58.723Z,6.57
2023-01-09T11:34:43.809Z,6.62
2023-01-09T11:38:01.520Z,6.48
2023-01-09T11:40:40.779Z,6.50
2023-01-09T11:43:28.566Z,6.39
2023-01-09T11:46:24.509Z,6.34
2023-01-09T11:49:08.452Z,6.30
2023-01-09T11:51:44.509Z,6.28
2023-01-09T11:54:37.864Z,6.33
2023-01-09T11:57:16.671Z,6.35
2023-01-09T12:00:04.487Z,6.36
2023-01-09T12:03:16.231Z,6.23
2023-01-09T12:06:13.443Z,6.26
2023-01-09T12:09:12.877Z,6.14
2023-01-09T12:12:55.864Z,6.14
2023-01-09T12:16:22.331Z,6.12
2023-01-09T12:19:06.735Z,6.00
2023-01-09T12:21:57.551Z,6.09
2023-01-09T12:25:05.493Z,6.11
2023-01-09T12:28:13.888Z,6.18
2023-01-09T12:31:21.462Z,6.18
2023-01-09T12:34:38.134Z,6.27
2023-01-09T12:38:05.485Z,6.20
2023-01-09T12:41:08.164Z,6.36
2023-01-09T12:44:11.459Z,6.29
2023-01-09T12:47:38.671Z,6.22
2023-01-09T12:50:34.480Z,6.33
2023-01-09T12:53:28.333Z,6.20
2023-01-09T12:56:18.149Z,6.12
2023-01-09T12:59:05.595Z,6.09
2023-01-09T13:02:15.898Z,6.19
2023-01-09T13:05:07.052Z,6.15
2023-01-09T13:07:51.510Z,6.05
2023-01-09T13:10:34.481Z,6.10
2023-01-09T13:13:24.399Z,6.22
2023-01-09T13:16:19.551Z,6.14
2023-01-09T13:19:04.771Z,6.08
2023-01-09T13:21:55.064Z,5.94
2023-01-09T13:24:52.021Z,5.96
2023-01-09T13:27:39.617Z,5.83
2023-01-09T13:30:28.367Z,5.95
2023-01-09T13:33:43.426Z,6.00
2023-01-09T13:36:47.363Z,6.00
2023-01-09T13:39:35.373Z,5.97
2023-01-09T13:42:38.850Z,5.96
2023-01-09T13:45:26.907Z,6.01
2023-01-09T13:48:20.483Z,5.96
2023-01-09T13:51:36.636Z,5.94
2023-01-09T13:54:33.647Z,6.00
2023-01-09T13:57:43.883Z,6.09
2023-01-09T14:00:34.497Z,5.94
2023-01-09T14:03:31.604Z,5.99
2023-01-09T14:06:34.972Z,5.95
2023-01-09T14:09:29.880Z,6.00
2023-01-09T14:12:17.739Z,5.90
2023-01-09T14:15:01.337Z,5.74
2023-01-09T14:17:44.269Z,5.66
2023-01-09T14:20:52.763Z,5.74
2023-01-09T14:24:06.467Z,5.70
2023-01-09T14:26:48.271Z,5.85
2023-01-09T14:29:45.427Z,5.94
2023-01-09T14:32:29.828Z,6.02
2023-01-09T14:35:19.967Z,6.01
2023-01-09T14:38:09.684Z,6.08
2023-01-09T14:41:13.746Z,6.13
2023-01-09T14:44:03.701Z,6.15
2023-01-09T14:46:50.529Z,6.15
2023-01-09T14:49:34.779Z,6.13
2023-01-09T14:52:39.906Z,6.10
2023-01-09T14:55:39.879Z,6.12
2023-01-09T14:58:45.002Z,6.12
2023-01-09T15:01:26.533Z,6.12
2023-01-09T15:04:46.030Z,6.12
2023-01-09T15:07:56.581Z,6.07
2023-01-09T15:10:37.514Z,6.14
2023-01-09T15:13:37.091Z,6.19
2023-01-09T15:16:20.655Z,6.08
2023-01-09T15:19:07.163Z,6.09
2023-01-09T15:22:04.430Z,6.02
2023-01-09T15:24:47.932Z,5.97
2023-01-09T15:27:26.521Z,6.04
2023-01-09T15:30:28.191Z,5.91
2023-01-09T15:33:14.523Z,5.97
2023-01-09T15:36:02.136Z,5.97
2023-01-09T15:38:50.484Z,6.03
2023-01-09T15:41:56.856Z,6.01
2023-01-09T15:44:44.798Z,6.10
2023-01-09T15:47:29.507Z,6.12
2023-01-09T15:50:18.254Z,6.14
2023-01-09T15:53:11.026Z,6.09
2023-01-09T15:56:05.596Z,5.90
2023-01-09T15:58:47.758Z,5.99
2023-01-09T16:02:07.590Z,5.95
2023-01-09T16:04:59.414Z,5.99
2023-01-09T16:07:45.876Z,5.94
2023-01-09T16:11:02.715Z,5.92
2023-01-09T16:13:55.104Z,5.88
2023-01-09T16:16:45.239Z,5.93
2023-01-09T16:20:02.755Z,5.77
2023-01-09T16:22:57.191Z,5.79
2023-01-09T16:25:46.414Z,5.80
2023-01-09T16:28:27.124Z,5.74
2023-01-09T16:31:18.824Z,5.80
2023-01-09T16:34:11.483Z,5.83
2023-01-09T16:36:54.017Z,5.91
2023-01-09T16:39:31.976Z,5.86
2023-01-09T16:42:28.035Z,5.74
2023-01-09T16:45:16.107Z,5.82
2023-01-09T16:48:03.451Z,5.82
2023-01-09T16:50:46.821Z,5.93
2023-01-09T16:53:33.298Z,5.88
2023-01-09T16:56:16.088Z,5.74
2023-01-09T16:59:00.573Z,5.84
2023-01-09T17:01:44.279Z,5.73
2023-01-09T17:04:22.426Z,5.81
2023-01-09T17:07:06.783Z,5.83
2023-01-09T17:10:03.632Z,5.87
2023-01-09T17:12:49.222Z,5.94
2023-01-09T17:15:32.444Z,5.92
2023-01-09T17:18:19.480Z,5.90
2023-01-09T17:20:57.591Z,5.93
2023-01-09T17:23:32.845Z,5.93
2023-01-09T17:26:35.060Z,5.86
2023-01-09T17:29:21.264Z,5.88
2023-01-09T17:31:56.498Z,5.81
2023-01-09T17:34:43.193Z,5.86
2023-01-09T17:37:27.181Z,5.85
2023-01-09T17:40:19.637Z,5.96
2023-01-09T17:42:57.230Z,5.96
2023-01-09T17:45:41.121Z,5.94
2023-01-09T17:48:30.601Z,5.99
2023-01-09T17:51:07.413Z,6.04
2023-01-09T17:53:55.716Z,6.02
2023-01-09T17:56:46.810Z,6.08
2023-01-09T17:59:29.436Z,6.12
2023-01-09T18:02:07.330Z,6.11
2023-01-09T18:04:51.372Z,6.15
2023-01-09T18:07:26.095Z,6.06
2023-01-09T18:10:11.812Z,6.08
2023-01-09T18:12:57.586Z,6.16
2023-01-09T18:15:36.078Z,6.19
2023-01-09T18:18:17.273Z,6.27
2023-01-09T18:21:07.008Z,6.09
2023-01-09T18:23:42.303Z,6.06
2023-01-09T18:26:23.439Z,6.11
2023-01-09T18:29:14.085Z,6.15
2023-01-09T18:31:55.077Z,6.08
2023-01-09T18:34:39.035Z,6.00
2023-01-09T18:37:29.693Z,6.06
2023-01-09T18:40:05.434Z,5.98
2023-01-09T18:42:45.451Z,6.09
2023-01-09T18:45:26.877Z,6.05
2023-01-09T18:48:07.593Z,6.03
2023-01-09T18:50:51.589Z,6.08
2023-01-09T18:53:37.757Z,6.13
2023-01-09T18:56:12.635Z,6.12
2023-01-09T18:59:09.095Z,6.06
2023-01-09T19:01:56.241Z,6.06
2023-01-09T19:04:46.422Z,6.06
2023-01-09T19:07:24.158Z,5.91
2023-01-09T19:10:11.898Z,5.91
2023-01-09T19:13:00.820Z,6.09
2023-01-09T19:15:43.762Z,6.07
2023-01-09T19:18:22.370Z,6.12
2023-01-09T19:21:03.035Z,6.07
2023-01-09T19:23:57.854Z,6.08
2023-01-09T19:26:36.724Z,6.08
2023-01-09T19:29:20.658Z,6.05
2023-01-09T19:32:08.765Z,5.98
2023-01-09T19:34:53.484Z,6.06
2023-01-09T19:37:45.383Z,6.05
2023-01-09T19:40:29.769Z,5.99
2023-01-09T19:43:25.974Z,6.00
2023-01-09T19:46:06.956Z,6.01
2023-01-09T19:48:47.691Z,6.07
2023-01-09T19:51:29.467Z,6.08
2023-01-09T19:54:13.511Z,6.07
2023-01-09T19:57:20.042Z,6.15
2023-01-09T20:00:01.593Z,6.23
2023-01-09T20:02:57.864Z,6.26
2023-01-09T20:05:37.519Z,6.25
2023-01-09T20:08:25.900Z,6.22
2023-01-09T20:11:18.234Z,6.19
2023-01-09T20:14:05.656Z,6.05
2023-01-09T20:16:52.459Z,6.14
2023-01-09T20:19:42.480Z,6.16
2023-01-09T20:22:26.381Z,6.16
2023-01-09T20:25:17.911Z,6.24
2023-01-09T20:28:24.413Z,6.20
2023-01-09T20:31:31.505Z,6.14
2023-01-09T20:34:28.796Z,6.06
2023-01-09T20:37:11.919Z,6.19
2023-01-09T20:39:58.982Z,6.18
2023-01-09T20:42:52.345Z,6.14
2023-01-09T20:45:31.509Z,6.08
2023-01-09T20:48:12.210Z,6.12
2023-01-09T20:50:56.781Z,6.14
2023-01-09T20:53:39.814Z,6.07
2023-01-09T20:56:33.223Z,6.16
2023-01-09T20:59:24.016Z,6.16
2023-01-09T21:02:01.913Z,6.14
2023-01-09T21:04:42.946Z,6.19
2023-01-09T21:07:28.031Z,6.27
2023-01-09T21:10:11.508Z,6.17
2023-01-09T21:12:50.661Z,6.24
2023-01-09T21:15:35.582Z,6.15
2023-01-09T21:18:15.830Z,6.11
2023-01-09T21:20:55.764Z,6.16
2023-01-09T21:23:43.579Z,6.11
2023-01-09T21:26:32.359Z,6.23
2023-01-09T21:29:15.757Z,6.21
2023-01-09T21:32:00.466Z,6.14
2023-01-09T21:34:48.919Z,6.15
2023-01-09T21:37:40.374Z,6.15
2023-01-09T21:40:30.733Z,6.29
2023-01-09T21:43:40.023Z,6.29
2023-01-09T21:46:44.745Z,6.18
2023-01-09T21:49:31.497Z,6.27
2023-01-09T21:52:24.077Z,6.19
2023-01-09T21:55:03.814Z,6.19
2023-01-09T21:57:59.668Z,6.25
2023-01-09T22:00:50.979Z,6.30
2023-01-09T22:03:47.827Z,6.26
2023-01-09T22:06:31.751Z,6.21
2023-01-09T22:09:12.246Z,6.09
2023-01-09T22:12:00.703Z,6.29
2023-01-09T22:14:42.004Z,6.23
2023-01-09T22:17:40.355Z,6.12
2023-01-09T22:20:24.345Z,6.14
2023-01-09T22:23:08.986Z,6.07
2023-01-09T22:25:44.480Z,6.08
2023-01-09T22:28:33.982Z,6.15
2023-01-09T22:31:25.880Z,6.07
2023-01-09T22:34:21.462Z,6.15
2023-01-09T22:37:05.299Z,6.20
2023-01-09T22:39:53.891Z,6.20
2023-01-09T22:42:41.543Z,6.16
2023-01-09T22:45:22.365Z,6.13
2023-01-09T22:48:09.660Z,6.08
2023-01-09T22:50:53.419Z,6.19
2023-01-09T22:53:52.392Z,6.16
2023-01-09T22:56:35.700Z,6.23
2023-01-09T22:59:27.965Z,6.27
2023-01-09T23:02:08.746Z,6.26
2023-01-09T23:04:58.411Z,6.18
2023-01-09T23:07:33.701Z,6.13
2023-01-09T23:10:20.421Z,6.13
2023-01-09T23:13:17.955Z,6.15
2023-01-09T23:16:02.253Z,6.15
2023-01-09T23:18:51.429Z,6.17
2023-01-09T23:21:31.896Z,6.21
2023-01-09T23:24:09.433Z,6.32
2023-01-09T23:26:55.026Z,6.21
2023-01-09T23:29:38.802Z,6.19
2023-01-09T23:32:24.432Z,6.19
2023-01-09T23:35:08.492Z,6.17
2023-01-09T23:38:03.074Z,6.21
2023-01-09T23:40:51.608Z,6.22
2023-01-09T23:43:38.008Z,6.32
2023-01-09T23:46:22.639Z,6.33
2023-01-09T23:49:03.665Z,6.47
2023-01-09T23:51:51.811Z,6.40
2023-01-09T23:54:43.085Z,6.50
2023-01-09T23:57:27.560Z,6.48
